Terminal Aerodrome Forecast
Issued by NWS Flagstaff, AZ

Home | Current Version | Previous Version | Text Only | Print | Product List | Glossary On
Versions: 1 2 3 4 5 6 7 8 9 10 11 12 13 14 15 16 17 18 19 20 21 22
000
FTUS45 KFGZ 231120
TAFFLG
TAF
KFLG 231120Z 2312/2412 24006KT P6SM SCT035 BKN060
     FM231900 24012G18KT P6SM SCT030 BKN045
      TEMPO 2320/2324 5SM -TSRA BKN030CB
     FM240100 VRB05KT P6SM BKN035 BKN100=

USA.gov is the U.S. government's official web portal to all federal, state and local government web resources and services.